sensor_id;sensor_type;location;lat;lon;timestamp;temperature;humidity
5621;DHT22;2832;50.864;12.186;2023-04-24T00:57:30;18.40;99.90
5621;DHT22;2832;50.864;12.186;2023-04-24T00:59:59;18.40;99.90
5621;DHT22;2832;50.864;12.186;2023-04-24T01:02:29;18.40;99.90
5621;DHT22;2832;50.864;12.186;2023-04-24T01:04:58;18.40;99.90
5621;DHT22;2832;50.864;12.186;2023-04-24T01:07:27;18.40;99.90
5621;DHT22;2832;50.864;12.186;2023-04-24T01:09:58;18.40;99.90
5621;DHT22;2832;50.864;12.186;2023-04-24T01:12:31;18.40;99.90
5621;DHT22;2832;50.864;12.186;2023-04-24T01:15:00;18.40;99.90
5621;DHT22;2832;50.864;12.186;2023-04-24T01:17:31;18.40;99.90
5621;DHT22;2832;50.864;12.186;2023-04-24T01:20:00;18.40;99.90
5621;DHT22;2832;50.864;12.186;2023-04-24T01:22:34;18.40;99.90
5621;DHT22;2832;50.864;12.186;2023-04-24T01:25:06;18.40;99.90
5621;DHT22;2832;50.864;12.186;2023-04-24T01:27:35;18.30;99.90
5621;DHT22;2832;50.864;12.186;2023-04-24T01:30:05;18.30;99.90
5621;DHT22;2832;50.864;12.186;2023-04-24T01:32:36;18.30;99.90
5621;DHT22;2832;50.864;12.186;2023-04-24T01:35:05;18.30;99.90
5621;DHT22;2832;50.864;12.186;2023-04-24T01:37:36;18.30;99.90
5621;DHT22;2832;50.864;12.186;2023-04-24T01:40:05;18.30;99.90
5621;DHT22;2832;50.864;12.186;2023-04-24T01:42:35;18.20;99.90
5621;DHT22;2832;50.864;12.186;2023-04-24T01:45:06;18.20;99.90
5621;DHT22;2832;50.864;12.186;2023-04-24T01:47:38;18.20;99.90
5621;DHT22;2832;50.864;12.186;2023-04-24T01:50:08;18.20;99.90
5621;DHT22;2832;50.864;12.186;2023-04-24T01:52:38;18.20;99.90
5621;DHT22;2832;50.864;12.186;2023-04-24T01:55:07;18.20;99.90
5621;DHT22;2832;50.864;12.186;2023-04-24T01:57:39;18.10;99.90
5621;DHT22;2832;50.864;12.186;2023-04-24T02:00:08;18.10;99.90
5621;DHT22;2832;50.864;12.186;2023-04-24T02:02:39;18.10;99.90
5621;DHT22;2832;50.864;12.186;2023-04-24T02:05:11;18.10;99.90
5621;DHT22;2832;50.864;12.186;2023-04-24T02:07:40;18.10;99.90
5621;DHT22;2832;50.864;12.186;2023-04-24T02:10:09;18.10;99.90
5621;DHT22;2832;50.864;12.186;2023-04-24T02:12:38;18.10;99.90
5621;DHT22;2832;50.864;12.186;2023-04-24T02:15:06;18.10;99.90
5621;DHT22;2832;50.864;12.186;2023-04-24T02:17:34;18.10;99.90
5621;DHT22;2832;50.864;12.186;2023-04-24T02:20:02;18.10;99.90
5621;DHT22;2832;50.864;12.186;2023-04-24T02:22:31;18.10;99.90
5621;DHT22;2832;50.864;12.186;2023-04-24T02:25:01;18.10;99.90
5621;DHT22;2832;50.864;12.186;2023-04-24T02:27:29;18.10;99.90
5621;DHT22;2832;50.864;12.186;2023-04-24T02:29:57;18.00;99.90
5621;DHT22;2832;50.864;12.186;2023-04-24T02:32:25;18.00;99.90
5621;DHT22;2832;50.864;12.186;2023-04-24T02:34:53;18.00;99.90
5621;DHT22;2832;50.864;12.186;2023-04-24T02:37:21;18.00;99.90
5621;DHT22;2832;50.864;12.186;2023-04-24T02:39:49;18.00;99.90
5621;DHT22;2832;50.864;12.186;2023-04-24T02:42:19;18.00;99.90
5621;DHT22;2832;50.864;12.186;2023-04-24T02:44:47;17.90;99.90
5621;DHT22;2832;50.864;12.186;2023-04-24T02:47:18;17.90;99.90
5621;DHT22;2832;50.864;12.186;2023-04-24T02:49:46;17.90;99.90
5621;DHT22;2832;50.864;12.186;2023-04-24T02:52:14;17.90;99.90
5621;DHT22;2832;50.864;12.186;2023-04-24T02:54:43;17.90;99.90
5621;DHT22;2832;50.864;12.186;2023-04-24T02:57:12;17.80;99.90
5621;DHT22;2832;50.864;12.186;2023-04-24T02:59:41;17.80;99.90
5621;DHT22;2832;50.864;12.186;2023-04-24T03:02:09;17.80;99.90
5621;DHT22;2832;50.864;12.186;2023-04-24T03:04:43;17.80;99.90
5621;DHT22;2832;50.864;12.186;2023-04-24T03:07:18;17.80;99.90
5621;DHT22;2832;50.864;12.186;2023-04-24T03:09:50;17.80;99.90
5621;DHT22;2832;50.864;12.186;2023-04-24T03:12:19;17.80;99.90
5621;DHT22;2832;50.864;12.186;2023-04-24T03:14:51;17.80;99.90
5621;DHT22;2832;50.864;12.186;2023-04-24T03:17:20;17.70;99.90
5621;DHT22;2832;50.864;12.186;2023-04-24T03:19:48;17.70;99.90
5621;DHT22;2832;50.864;12.186;2023-04-24T03:22:16;17.70;99.90
5621;DHT22;2832;50.864;12.186;2023-04-24T03:24:48;17.70;99.90
5621;DHT22;2832;50.864;12.186;2023-04-24T03:27:17;17.70;99.90
5621;DHT22;2832;50.864;12.186;2023-04-24T03:29:45;17.70;99.90
5621;DHT22;2832;50.864;12.186;2023-04-24T03:32:16;17.70;99.90
5621;DHT22;2832;50.864;12.186;2023-04-24T03:34:45;17.70;99.90
5621;DHT22;2832;50.864;12.186;2023-04-24T03:37:13;17.60;99.90
5621;DHT22;2832;50.864;12.186;2023-04-24T03:39:40;17.60;99.90
5621;DHT22;2832;50.864;12.186;2023-04-24T03:42:09;17.60;99.90
5621;DHT22;2832;50.864;12.186;2023-04-24T03:44:37;17.60;99.90
5621;DHT22;2832;50.864;12.186;2023-04-24T03:47:05;17.60;99.90
5621;DHT22;2832;50.864;12.186;2023-04-24T03:49:34;17.60;99.90
5621;DHT22;2832;50.864;12.186;2023-04-24T03:52:04;17.50;99.90
5621;DHT22;2832;50.864;12.186;2023-04-24T03:54:32;17.60;99.90
5621;DHT22;2832;50.864;12.186;2023-04-24T05:58:05;17.20;99.90
5621;DHT22;2832;50.864;12.186;2023-04-24T06:00:33;17.20;99.90
5621;DHT22;2832;50.864;12.186;2023-04-24T06:03:01;17.20;99.90
5621;DHT22;2832;50.864;12.186;2023-04-24T06:05:30;17.20;99.90
5621;DHT22;2832;50.864;12.186;2023-04-24T06:07:58;17.20;99.90
5621;DHT22;2832;50.864;12.186;2023-04-24T06:10:25;17.20;99.90
5621;DHT22;2832;50.864;12.186;2023-04-24T06:12:54;17.20;99.90
5621;DHT22;2832;50.864;12.186;2023-04-24T06:15:30;17.20;99.90
5621;DHT22;2832;50.864;12.186;2023-04-24T06:17:59;17.20;99.90
5621;DHT22;2832;50.864;12.186;2023-04-24T06:20:27;17.20;99.90
5621;DHT22;2832;50.864;12.186;2023-04-24T06:22:56;17.20;99.90
5621;DHT22;2832;50.864;12.186;2023-04-24T06:25:25;17.20;99.90
5621;DHT22;2832;50.864;12.186;2023-04-24T06:27:55;17.20;99.90
5621;DHT22;2832;50.864;12.186;2023-04-24T06:30:23;17.20;99.90
5621;DHT22;2832;50.864;12.186;2023-04-24T06:32:54;17.20;99.90
5621;DHT22;2832;50.864;12.186;2023-04-24T06:35:22;17.10;99.90
5621;DHT22;2832;50.864;12.186;2023-04-24T06:37:50;17.10;99.90
5621;DHT22;2832;50.864;12.186;2023-04-24T06:40:24;17.10;99.90
5621;DHT22;2832;50.864;12.186;2023-04-24T06:42:52;17.10;99.90
5621;DHT22;2832;50.864;12.186;2023-04-24T06:45:19;17.10;99.90
5621;DHT22;2832;50.864;12.186;2023-04-24T06:47:47;17.10;99.90
5621;DHT22;2832;50.864;12.186;2023-04-24T06:50:19;17.10;99.90
5621;DHT22;2832;50.864;12.186;2023-04-24T06:52:50;17.10;99.90
5621;DHT22;2832;50.864;12.186;2023-04-24T06:55:18;17.10;99.90
5621;DHT22;2832;50.864;12.186;2023-04-24T06:57:46;17.10;99.90
5621;DHT22;2832;50.864;12.186;2023-04-24T07:00:15;17.20;99.90
5621;DHT22;2832;50.864;12.186;2023-04-24T07:02:49;17.10;99.90
5621;DHT22;2832;50.864;12.186;2023-04-24T07:05:19;17.10;99.90
5621;DHT22;2832;50.864;12.186;2023-04-24T07:07:49;17.10;99.90
5621;DHT22;2832;50.864;12.186;2023-04-24T07:10:21;17.10;99.90
5621;DHT22;2832;50.864;12.186;2023-04-24T07:12:51;17.20;99.90
5621;DHT22;2832;50.864;12.186;2023-04-24T07:15:21;17.20;99.90
5621;DHT22;2832;50.864;12.186;2023-04-24T07:17:50;17.20;99.90
5621;DHT22;2832;50.864;12.186;2023-04-24T07:20:27;17.10;99.90
5621;DHT22;2832;50.864;12.186;2023-04-24T07:22:55;17.10;99.90
5621;DHT22;2832;50.864;12.186;2023-04-24T07:25:24;17.10;99.90
5621;DHT22;2832;50.864;12.186;2023-04-24T07:27:55;17.10;99.90
5621;DHT22;2832;50.864;12.186;2023-04-24T07:30:23;17.10;99.90
5621;DHT22;2832;50.864;12.186;2023-04-24T07:32:53;17.00;99.90
5621;DHT22;2832;50.864;12.186;2023-04-24T07:35:24;17.00;99.90
5621;DHT22;2832;50.864;12.186;2023-04-24T07:37:53;17.00;99.90
5621;DHT22;2832;50.864;12.186;2023-04-24T07:40:22;17.00;99.90
5621;DHT22;2832;50.864;12.186;2023-04-24T07:42:50;17.00;99.90
5621;DHT22;2832;50.864;12.186;2023-04-24T07:45:17;17.10;99.90
5621;DHT22;2832;50.864;12.186;2023-04-24T07:47:45;17.10;99.90
5621;DHT22;2832;50.864;12.186;2023-04-24T07:50:14;17.10;99.90
5621;DHT22;2832;50.864;12.186;2023-04-24T07:52:43;17.10;99.90
5621;DHT22;2832;50.864;12.186;2023-04-24T07:55:11;17.10;99.90
5621;DHT22;2832;50.864;12.186;2023-04-24T07:57:39;17.00;99.90
5621;DHT22;2832;50.864;12.186;2023-04-24T08:59:19;17.00;99.90
5621;DHT22;2832;50.864;12.186;2023-04-24T09:01:55;17.00;99.90
5621;DHT22;2832;50.864;12.186;2023-04-24T09:04:25;17.00;99.90
5621;DHT22;2832;50.864;12.186;2023-04-24T09:06:56;17.00;99.90
5621;DHT22;2832;50.864;12.186;2023-04-24T09:09:26;17.10;99.90
5621;DHT22;2832;50.864;12.186;2023-04-24T09:11:59;17.10;99.90
5621;DHT22;2832;50.864;12.186;2023-04-24T09:14:36;17.10;99.90
5621;DHT22;2832;50.864;12.186;2023-04-24T09:17:17;17.10;99.90
5621;DHT22;2832;50.864;12.186;2023-04-24T09:20:13;17.10;99.90
5621;DHT22;2832;50.864;12.186;2023-04-24T09:22:48;17.10;99.90
5621;DHT22;2832;50.864;12.186;2023-04-24T09:25:20;17.10;99.90
5621;DHT22;2832;50.864;12.186;2023-04-24T09:31:11;17.00;99.90
5621;DHT22;2832;50.864;12.186;2023-04-24T09:33:53;17.10;99.90
5621;DHT22;2832;50.864;12.186;2023-04-24T09:40:08;17.10;99.90
5621;DHT22;2832;50.864;12.186;2023-04-24T09:42:44;17.10;99.70
5621;DHT22;2832;50.864;12.186;2023-04-24T09:45:17;17.10;99.20
5621;DHT22;2832;50.864;12.186;2023-04-24T09:47:53;17.10;98.80
5621;DHT22;2832;50.864;12.186;2023-04-24T09:50:31;17.10;98.30
5621;DHT22;2832;50.864;12.186;2023-04-24T09:53:03;17.10;98.20
5621;DHT22;2832;50.864;12.186;2023-04-24T09:55:42;17.10;98.00
5621;DHT22;2832;50.864;12.186;2023-04-24T11:00:27;17.30;96.70
5621;DHT22;2832;50.864;12.186;2023-04-24T11:02:59;17.30;96.90
5621;DHT22;2832;50.864;12.186;2023-04-24T11:05:52;17.30;96.50
5621;DHT22;2832;50.864;12.186;2023-04-24T11:08:27;17.30;95.90
5621;DHT22;2832;50.864;12.186;2023-04-24T11:11:08;17.30;95.90
5621;DHT22;2832;50.864;12.186;2023-04-24T11:14:05;17.30;95.60
5621;DHT22;2832;50.864;12.186;2023-04-24T11:16:46;17.20;95.50
5621;DHT22;2832;50.864;12.186;2023-04-24T11:19:22;17.20;95.40
5621;DHT22;2832;50.864;12.186;2023-04-24T11:21:58;17.20;95.50
5621;DHT22;2832;50.864;12.186;2023-04-24T11:24:38;17.30;95.30
5621;DHT22;2832;50.864;12.186;2023-04-24T11:27:13;17.30;95.20
5621;DHT22;2832;50.864;12.186;2023-04-24T11:29:45;17.30;94.80
5621;DHT22;2832;50.864;12.186;2023-04-24T11:32:25;17.30;94.90
5621;DHT22;2832;50.864;12.186;2023-04-24T11:34:55;17.30;94.70
5621;DHT22;2832;50.864;12.186;2023-04-24T11:37:35;17.30;94.80
5621;DHT22;2832;50.864;12.186;2023-04-24T11:40:10;17.30;94.80
5621;DHT22;2832;50.864;12.186;2023-04-24T11:42:41;17.30;95.00
5621;DHT22;2832;50.864;12.186;2023-04-24T11:45:29;17.30;95.00
5621;DHT22;2832;50.864;12.186;2023-04-24T11:48:09;17.30;94.90
5621;DHT22;2832;50.864;12.186;2023-04-24T11:50:39;17.30;94.80
5621;DHT22;2832;50.864;12.186;2023-04-24T11:53:16;17.40;94.50
5621;DHT22;2832;50.864;12.186;2023-04-24T11:56:10;17.40;94.30
5621;DHT22;2832;50.864;12.186;2023-04-24T11:58:53;17.40;94.30
5621;DHT22;2832;50.864;12.186;2023-04-24T12:01:28;17.40;94.20
5621;DHT22;2832;50.864;12.186;2023-04-24T12:04:07;17.40;94.30
5621;DHT22;2832;50.864;12.186;2023-04-24T12:06:39;17.40;94.10
5621;DHT22;2832;50.864;12.186;2023-04-24T12:09:14;17.50;94.10
5621;DHT22;2832;50.864;12.186;2023-04-24T12:11:55;17.50;93.80
5621;DHT22;2832;50.864;12.186;2023-04-24T12:14:30;17.40;93.60
5621;DHT22;2832;50.864;12.186;2023-04-24T12:17:03;17.40;93.50
5621;DHT22;2832;50.864;12.186;2023-04-24T12:19:46;17.40;93.60
5621;DHT22;2832;50.864;12.186;2023-04-24T12:22:16;17.40;93.00
5621;DHT22;2832;50.864;12.186;2023-04-24T12:24:59;17.40;92.90
5621;DHT22;2832;50.864;12.186;2023-04-24T12:27:33;17.50;93.10
5621;DHT22;2832;50.864;12.186;2023-04-24T12:30:10;17.50;93.10
5621;DHT22;2832;50.864;12.186;2023-04-24T12:33:06;17.50;93.00
5621;DHT22;2832;50.864;12.186;2023-04-24T12:39:36;17.50;93.00
5621;DHT22;2832;50.864;12.186;2023-04-24T12:42:10;17.50;93.20
5621;DHT22;2832;50.864;12.186;2023-04-24T12:44:44;17.50;93.20
5621;DHT22;2832;50.864;12.186;2023-04-24T12:47:15;17.50;93.10
5621;DHT22;2832;50.864;12.186;2023-04-24T12:49:46;17.60;93.00
5621;DHT22;2832;50.864;12.186;2023-04-24T12:52:15;17.50;93.00
5621;DHT22;2832;50.864;12.186;2023-04-24T12:54:45;17.60;93.00
5621;DHT22;2832;50.864;12.186;2023-04-24T12:57:13;17.50;92.70
5621;DHT22;2832;50.864;12.186;2023-04-24T14:02:15;17.70;92.30
5621;DHT22;2832;50.864;12.186;2023-04-24T14:04:51;17.70;92.40
5621;DHT22;2832;50.864;12.186;2023-04-24T14:07:21;17.80;92.40
5621;DHT22;2832;50.864;12.186;2023-04-24T14:09:49;17.70;92.50
5621;DHT22;2832;50.864;12.186;2023-04-24T14:12:18;17.80;92.80
5621;DHT22;2832;50.864;12.186;2023-04-24T14:14:57;17.80;92.70
5621;DHT22;2832;50.864;12.186;2023-04-24T14:17:36;17.80;92.60
5621;DHT22;2832;50.864;12.186;2023-04-24T14:20:08;17.80;92.70
5621;DHT22;2832;50.864;12.186;2023-04-24T14:22:42;17.80;92.70
5621;DHT22;2832;50.864;12.186;2023-04-24T14:25:11;17.80;92.30
5621;DHT22;2832;50.864;12.186;2023-04-24T14:27:43;17.80;92.40
5621;DHT22;2832;50.864;12.186;2023-04-24T14:30:13;17.70;92.30
5621;DHT22;2832;50.864;12.186;2023-04-24T14:32:44;17.70;92.30
5621;DHT22;2832;50.864;12.186;2023-04-24T14:35:13;17.70;92.40
5621;DHT22;2832;50.864;12.186;2023-04-24T14:37:43;17.70;92.50
5621;DHT22;2832;50.864;12.186;2023-04-24T14:40:13;17.70;92.50
5621;DHT22;2832;50.864;12.186;2023-04-24T14:42:45;17.60;92.60
5621;DHT22;2832;50.864;12.186;2023-04-24T14:45:19;17.70;92.80
5621;DHT22;2832;50.864;12.186;2023-04-24T14:47:51;17.70;92.80
5621;DHT22;2832;50.864;12.186;2023-04-24T14:50:22;17.70;93.00
5621;DHT22;2832;50.864;12.186;2023-04-24T14:52:55;17.60;93.10
5621;DHT22;2832;50.864;12.186;2023-04-24T14:55:24;17.60;93.20
5621;DHT22;2832;50.864;12.186;2023-04-24T14:57:53;17.60;93.30
5621;DHT22;2832;50.864;12.186;2023-04-24T15:00:21;17.60;93.40
5621;DHT22;2832;50.864;12.186;2023-04-24T16:03:27;17.70;94.00
5621;DHT22;2832;50.864;12.186;2023-04-24T16:05:58;17.60;94.00
5621;DHT22;2832;50.864;12.186;2023-04-24T16:08:36;17.60;94.00
5621;DHT22;2832;50.864;12.186;2023-04-24T16:11:09;17.60;94.00
5621;DHT22;2832;50.864;12.186;2023-04-24T16:13:41;17.60;94.00
5621;DHT22;2832;50.864;12.186;2023-04-24T16:16:13;17.60;94.00
5621;DHT22;2832;50.864;12.186;2023-04-24T16:18:49;17.60;94.10
5621;DHT22;2832;50.864;12.186;2023-04-24T16:21:24;17.60;94.10
5621;DHT22;2832;50.864;12.186;2023-04-24T16:23:58;17.60;94.20
5621;DHT22;2832;50.864;12.186;2023-04-24T16:26:30;17.60;94.20
5621;DHT22;2832;50.864;12.186;2023-04-24T16:29:01;17.60;94.20
5621;DHT22;2832;50.864;12.186;2023-04-24T16:31:37;17.60;94.20
5621;DHT22;2832;50.864;12.186;2023-04-24T16:34:14;17.60;94.20
5621;DHT22;2832;50.864;12.186;2023-04-24T16:36:48;17.70;94.30
5621;DHT22;2832;50.864;12.186;2023-04-24T16:39:17;17.60;94.30
5621;DHT22;2832;50.864;12.186;2023-04-24T16:41:47;17.60;94.30
5621;DHT22;2832;50.864;12.186;2023-04-24T16:44:16;17.60;94.30
5621;DHT22;2832;50.864;12.186;2023-04-24T16:46:47;17.60;94.40
5621;DHT22;2832;50.864;12.186;2023-04-24T16:49:24;17.60;94.40
5621;DHT22;2832;50.864;12.186;2023-04-24T16:51:56;17.60;94.40
5621;DHT22;2832;50.864;12.186;2023-04-24T16:54:25;17.60;94.40
5621;DHT22;2832;50.864;12.186;2023-04-24T16:57:10;17.60;94.40
5621;DHT22;2832;50.864;12.186;2023-04-24T16:59:39;17.60;94.40
5621;DHT22;2832;50.864;12.186;2023-04-24T17:02:10;17.60;94.50
5621;DHT22;2832;50.864;12.186;2023-04-24T17:04:40;17.70;94.50
5621;DHT22;2832;50.864;12.186;2023-04-24T17:07:08;17.60;94.50
5621;DHT22;2832;50.864;12.186;2023-04-24T17:09:36;17.60;94.50
5621;DHT22;2832;50.864;12.186;2023-04-24T17:12:04;17.60;94.60
5621;DHT22;2832;50.864;12.186;2023-04-24T17:14:33;17.60;94.70
5621;DHT22;2832;50.864;12.186;2023-04-24T17:17:04;17.70;94.70
5621;DHT22;2832;50.864;12.186;2023-04-24T17:19:32;17.70;94.70
5621;DHT22;2832;50.864;12.186;2023-04-24T17:22:02;17.70;94.80
5621;DHT22;2832;50.864;12.186;2023-04-24T17:24:30;17.60;94.70
5621;DHT22;2832;50.864;12.186;2023-04-24T17:26:59;17.60;94.80
5621;DHT22;2832;50.864;12.186;2023-04-24T17:29:28;17.60;94.80
5621;DHT22;2832;50.864;12.186;2023-04-24T17:31:57;17.60;94.70
5621;DHT22;2832;50.864;12.186;2023-04-24T17:34:26;17.60;94.70
5621;DHT22;2832;50.864;12.186;2023-04-24T17:36:57;17.60;94.70
5621;DHT22;2832;50.864;12.186;2023-04-24T17:39:31;17.60;94.70
5621;DHT22;2832;50.864;12.186;2023-04-24T17:42:05;17.60;94.60
5621;DHT22;2832;50.864;12.186;2023-04-24T17:44:36;17.60;94.60
5621;DHT22;2832;50.864;12.186;2023-04-24T17:47:05;17.60;94.60
5621;DHT22;2832;50.864;12.186;2023-04-24T17:49:33;17.60;94.60
5621;DHT22;2832;50.864;12.186;2023-04-24T17:52:03;17.50;94.60
5621;DHT22;2832;50.864;12.186;2023-04-24T17:54:33;17.50;94.70
5621;DHT22;2832;50.864;12.186;2023-04-24T17:57:01;17.60;94.70
5621;DHT22;2832;50.864;12.186;2023-04-24T17:59:30;17.50;94.80
5621;DHT22;2832;50.864;12.186;2023-04-24T18:02:00;17.50;94.80
5621;DHT22;2832;50.864;12.186;2023-04-24T18:04:39;17.50;94.90
5621;DHT22;2832;50.864;12.186;2023-04-24T18:07:17;17.50;94.90
5621;DHT22;2832;50.864;12.186;2023-04-24T18:09:51;17.50;94.90
5621;DHT22;2832;50.864;12.186;2023-04-24T18:12:25;17.50;94.90
5621;DHT22;2832;50.864;12.186;2023-04-24T18:15:02;17.50;94.80
5621;DHT22;2832;50.864;12.186;2023-04-24T18:17:50;17.50;94.90
5621;DHT22;2832;50.864;12.186;2023-04-24T18:20:42;17.50;95.00
5621;DHT22;2832;50.864;12.186;2023-04-24T18:23:21;17.50;95.00
5621;DHT22;2832;50.864;12.186;2023-04-24T18:29:54;17.50;95.00
5621;DHT22;2832;50.864;12.186;2023-04-24T18:36:26;17.50;95.20
5621;DHT22;2832;50.864;12.186;2023-04-24T18:38:54;17.50;95.20
5621;DHT22;2832;50.864;12.186;2023-04-24T18:41:23;17.50;95.20
5621;DHT22;2832;50.864;12.186;2023-04-24T18:43:53;17.50;95.20
5621;DHT22;2832;50.864;12.186;2023-04-24T18:46:25;17.50;95.10
5621;DHT22;2832;50.864;12.186;2023-04-24T18:48:55;17.50;95.10
5621;DHT22;2832;50.864;12.186;2023-04-24T18:51:31;17.50;95.20
5621;DHT22;2832;50.864;12.186;2023-04-24T18:54:04;17.50;95.30
5621;DHT22;2832;50.864;12.186;2023-04-24T18:56:39;17.50;95.20
5621;DHT22;2832;50.864;12.186;2023-04-24T18:59:13;17.50;94.90
5621;DHT22;2832;50.864;12.186;2023-04-24T19:01:50;17.50;94.80
5621;DHT22;2832;50.864;12.186;2023-04-24T19:04:22;17.40;94.30
5621;DHT22;2832;50.864;12.186;2023-04-24T19:07:04;17.40;94.10
5621;DHT22;2832;50.864;12.186;2023-04-24T19:09:42;17.40;93.90
5621;DHT22;2832;50.864;12.186;2023-04-24T19:12:15;17.40;93.80
5621;DHT22;2832;50.864;12.186;2023-04-24T19:15:07;17.30;93.80
5621;DHT22;2832;50.864;12.186;2023-04-24T19:17:43;17.30;93.70
5621;DHT22;2832;50.864;12.186;2023-04-24T19:20:26;17.30;93.70
5621;DHT22;2832;50.864;12.186;2023-04-24T19:23:03;17.30;93.80
5621;DHT22;2832;50.864;12.186;2023-04-24T19:25:37;17.30;93.80
5621;DHT22;2832;50.864;12.186;2023-04-24T19:28:09;17.30;93.70
5621;DHT22;2832;50.864;12.186;2023-04-24T19:30:44;17.30;93.70
5621;DHT22;2832;50.864;12.186;2023-04-24T19:33:17;17.30;93.70
5621;DHT22;2832;50.864;12.186;2023-04-24T19:35:47;17.30;93.70
5621;DHT22;2832;50.864;12.186;2023-04-24T19:38:19;17.30;93.70
5621;DHT22;2832;50.864;12.186;2023-04-24T19:40:48;17.30;93.60
5621;DHT22;2832;50.864;12.186;2023-04-24T19:43:21;17.30;93.40
5621;DHT22;2832;50.864;12.186;2023-04-24T19:46:09;17.30;93.40
5621;DHT22;2832;50.864;12.186;2023-04-24T19:48:49;17.30;93.30
5621;DHT22;2832;50.864;12.186;2023-04-24T19:51:26;17.20;93.30
5621;DHT22;2832;50.864;12.186;2023-04-24T19:53:57;17.20;93.30
5621;DHT22;2832;50.864;12.186;2023-04-24T19:56:31;17.20;93.40
5621;DHT22;2832;50.864;12.186;2023-04-24T19:59:04;17.20;93.40
5621;DHT22;2832;50.864;12.186;2023-04-24T20:01:34;17.20;93.40
5621;DHT22;2832;50.864;12.186;2023-04-24T20:04:07;17.20;93.30
5621;DHT22;2832;50.864;12.186;2023-04-24T20:06:38;17.20;93.10
5621;DHT22;2832;50.864;12.186;2023-04-24T20:09:12;17.20;93.20
5621;DHT22;2832;50.864;12.186;2023-04-24T20:11:43;17.20;93.30
5621;DHT22;2832;50.864;12.186;2023-04-24T20:14:19;17.20;93.30
5621;DHT22;2832;50.864;12.186;2023-04-24T20:16:54;17.20;93.40
5621;DHT22;2832;50.864;12.186;2023-04-24T20:19:29;17.20;93.50
5621;DHT22;2832;50.864;12.186;2023-04-24T20:22:07;17.20;93.70
5621;DHT22;2832;50.864;12.186;2023-04-24T20:24:46;17.20;93.80
5621;DHT22;2832;50.864;12.186;2023-04-24T20:27:23;17.20;93.90
5621;DHT22;2832;50.864;12.186;2023-04-24T20:29:58;17.20;94.10
5621;DHT22;2832;50.864;12.186;2023-04-24T20:32:40;17.20;94.20
5621;DHT22;2832;50.864;12.186;2023-04-24T20:35:21;17.20;94.30
5621;DHT22;2832;50.864;12.186;2023-04-24T20:37:52;17.10;94.30
5621;DHT22;2832;50.864;12.186;2023-04-24T20:40:21;17.10;94.30
5621;DHT22;2832;50.864;12.186;2023-04-24T20:42:52;17.10;94.40
5621;DHT22;2832;50.864;12.186;2023-04-24T20:45:23;17.10;94.30
5621;DHT22;2832;50.864;12.186;2023-04-24T20:47:54;17.10;94.50
5621;DHT22;2832;50.864;12.186;2023-04-24T20:50:26;17.10;94.50
5621;DHT22;2832;50.864;12.186;2023-04-24T20:52:57;17.10;94.50
5621;DHT22;2832;50.864;12.186;2023-04-24T20:55:27;17.10;94.60
5621;DHT22;2832;50.864;12.186;2023-04-24T20:57:58;17.00;94.70
5621;DHT22;2832;50.864;12.186;2023-04-24T21:00:29;17.00;94.70
5621;DHT22;2832;50.864;12.186;2023-04-24T21:03:00;17.00;94.70
5621;DHT22;2832;50.864;12.186;2023-04-24T21:05:35;17.00;94.70
5621;DHT22;2832;50.864;12.186;2023-04-24T21:08:05;17.00;94.70
5621;DHT22;2832;50.864;12.186;2023-04-24T21:10:33;17.00;94.70
5621;DHT22;2832;50.864;12.186;2023-04-24T21:13:02;17.00;94.70
5621;DHT22;2832;50.864;12.186;2023-04-24T21:15:31;17.00;94.70
5621;DHT22;2832;50.864;12.186;2023-04-24T21:17:59;17.00;94.80
5621;DHT22;2832;50.864;12.186;2023-04-24T22:19:52;16.70;94.30
5621;DHT22;2832;50.864;12.186;2023-04-24T22:22:20;16.70;94.30
5621;DHT22;2832;50.864;12.186;2023-04-24T22:24:49;16.70;94.20
5621;DHT22;2832;50.864;12.186;2023-04-24T22:27:17;16.60;94.20
5621;DHT22;2832;50.864;12.186;2023-04-24T22:29:46;16.60;94.20
5621;DHT22;2832;50.864;12.186;2023-04-24T22:33:01;16.60;94.10
5621;DHT22;2832;50.864;12.186;2023-04-24T22:36:40;16.60;94.20
5621;DHT22;2832;50.864;12.186;2023-04-24T22:39:08;16.60;94.20
5621;DHT22;2832;50.864;12.186;2023-04-24T22:41:41;16.60;94.20
5621;DHT22;2832;50.864;12.186;2023-04-24T22:44:10;16.60;94.20
5621;DHT22;2832;50.864;12.186;2023-04-24T22:46:38;16.60;94.20
5621;DHT22;2832;50.864;12.186;2023-04-24T22:49:07;16.50;94.10
5621;DHT22;2832;50.864;12.186;2023-04-24T22:51:35;16.50;94.10
5621;DHT22;2832;50.864;12.186;2023-04-24T22:54:23;16.50;94.20
5621;DHT22;2832;50.864;12.186;2023-04-24T22:56:51;16.50;94.10
5621;DHT22;2832;50.864;12.186;2023-04-24T22:59:19;16.50;94.10
5621;DHT22;2832;50.864;12.186;2023-04-24T23:01:48;16.40;94.10
5621;DHT22;2832;50.864;12.186;2023-04-24T23:04:16;16.40;94.20
5621;DHT22;2832;50.864;12.186;2023-04-24T23:06:44;16.40;94.20
5621;DHT22;2832;50.864;12.186;2023-04-24T23:09:35;16.40;94.20
5621;DHT22;2832;50.864;12.186;2023-04-24T23:12:04;16.30;94.10
5621;DHT22;2832;50.864;12.186;2023-04-24T23:14:31;16.30;94.10
5621;DHT22;2832;50.864;12.186;2023-04-24T23:17:00;16.30;94.20
5621;DHT22;2832;50.864;12.186;2023-04-24T23:19:29;16.30;94.20
5621;DHT22;2832;50.864;12.186;2023-04-24T23:21:57;16.20;94.10
5621;DHT22;2832;50.864;12.186;2023-04-24T23:24:25;16.20;94.20
5621;DHT22;2832;50.864;12.186;2023-04-24T23:26:55;16.30;94.20
5621;DHT22;2832;50.864;12.186;2023-04-24T23:29:22;16.30;94.20
5621;DHT22;2832;50.864;12.186;2023-04-24T23:31:52;16.30;94.20
5621;DHT22;2832;50.864;12.186;2023-04-24T23:34:20;16.20;94.20
5621;DHT22;2832;50.864;12.186;2023-04-24T23:36:49;16.30;94.20
5621;DHT22;2832;50.864;12.186;2023-04-24T23:39:18;16.20;94.20
5621;DHT22;2832;50.864;12.186;2023-04-24T23:44:55;16.20;94.10
5621;DHT22;2832;50.864;12.186;2023-04-24T23:47:23;16.20;94.10
5621;DHT22;2832;50.864;12.186;2023-04-24T23:49:51;16.10;94.10
5621;DHT22;2832;50.864;12.186;2023-04-24T23:52:20;16.20;94.10
5621;DHT22;2832;50.864;12.186;2023-04-24T23:54:49;16.20;94.10
5621;DHT22;2832;50.864;12.186;2023-04-24T23:57:17;16.10;94.00
5621;DHT22;2832;50.864;12.186;2023-04-24T23:59:57;16.10;94.00
